createdAt,value
2023-04-16T00:00:42.573Z,102207.13
2023-04-16T00:03:09.299Z,102209.22
2023-04-16T00:05:35.984Z,102201.22
2023-04-16T00:08:03.152Z,102210.13
2023-04-16T00:10:29.600Z,102210.84
2023-04-16T00:12:56.062Z,102207.84
2023-04-16T00:15:22.665Z,102212.13
2023-04-16T00:17:49.264Z,102207.63
2023-04-16T00:20:15.815Z,102215.16
2023-04-16T00:22:42.303Z,102205.94
2023-04-16T00:25:09.113Z,102203.72
2023-04-16T00:27:35.776Z,102215.97
2023-04-16T00:30:03.545Z,102214.53
2023-04-16T00:32:30.697Z,102218.25
2023-04-16T00:34:57.236Z,102211.44
2023-04-16T00:37:23.771Z,102204.91
2023-04-16T00:39:50.695Z,102210.53
2023-04-16T00:42:17.230Z,102211.53
2023-04-16T00:44:43.730Z,102207.53
2023-04-16T00:47:10.666Z,102210.22
2023-04-16T00:49:37.552Z,102208.41
2023-04-16T00:52:04.343Z,102213.66
2023-04-16T00:54:31.894Z,102210.31
2023-04-16T00:56:59.518Z,102208.63
2023-04-16T00:59:27.021Z,102205.00
2023-04-16T01:01:53.600Z,102203.91
2023-04-16T01:04:20.317Z,102208.41
2023-04-16T01:06:46.957Z,102199.09
2023-04-16T01:09:13.400Z,102207.63
2023-04-16T01:11:39.959Z,102202.50
2023-04-16T01:14:06.544Z,102205.91
2023-04-16T01:16:33.087Z,102207.63
2023-04-16T01:18:59.581Z,102207.84
2023-04-16T01:21:26.549Z,102202.28
2023-04-16T01:23:52.992Z,102204.50
2023-04-16T01:26:19.455Z,102196.50
2023-04-16T01:28:46.293Z,102214.72
2023-04-16T01:31:12.806Z,102212.53
2023-04-16T01:33:39.266Z,102217.75
2023-04-16T01:36:06.041Z,102210.41
2023-04-16T01:38:32.522Z,102214.03
2023-04-16T01:40:59.598Z,102217.16
2023-04-16T01:43:26.169Z,102218.16
2023-04-16T01:45:59.593Z,102213.03
2023-04-16T01:48:26.091Z,102214.53
2023-04-16T01:50:52.561Z,102221.78
2023-04-16T01:53:19.041Z,102219.16
2023-04-16T01:55:45.591Z,102218.75
2023-04-16T01:58:14.752Z,102229.09
2023-04-16T02:00:41.349Z,102229.19
2023-04-16T02:03:07.986Z,102223.47
2023-04-16T02:05:34.684Z,102219.25
2023-04-16T02:08:01.245Z,102224.88
2023-04-16T02:10:27.674Z,102216.84
2023-04-16T02:12:54.134Z,102224.06
2023-04-16T02:15:20.563Z,102220.56
2023-04-16T02:17:48.638Z,102224.16
2023-04-16T02:20:15.919Z,102220.44
2023-04-16T02:22:43.428Z,102217.34
2023-04-16T02:25:09.943Z,102218.03
2023-04-16T02:27:36.708Z,102226.69
2023-04-16T02:30:04.344Z,102222.97
2023-04-16T02:32:30.906Z,102215.38
2023-04-16T02:34:57.389Z,102215.16
2023-04-16T02:37:24.679Z,102212.94
2023-04-16T02:39:51.441Z,102218.56
2023-04-16T02:42:17.876Z,102217.53
2023-04-16T02:44:44.346Z,102216.75
2023-04-16T02:47:10.817Z,102216.25
2023-04-16T02:49:37.253Z,102216.84
2023-04-16T02:52:03.739Z,102229.09
2023-04-16T02:54:30.282Z,102229.81
2023-04-16T02:56:56.879Z,102227.50
2023-04-16T02:59:23.345Z,102231.78
2023-04-16T03:01:50.013Z,102225.66
2023-04-16T03:04:16.675Z,102226.78
2023-04-16T03:06:43.158Z,102236.81
2023-04-16T03:09:09.795Z,102237.09
2023-04-16T03:11:36.386Z,102232.50
2023-04-16T03:14:02.826Z,102232.59
2023-04-16T03:16:29.262Z,102233.09
2023-04-16T03:18:55.688Z,102238.50
2023-04-16T03:21:22.140Z,102240.81
2023-04-16T03:23:48.916Z,102248.44
2023-04-16T03:26:15.494Z,102243.03
2023-04-16T03:28:41.930Z,102245.25
2023-04-16T03:31:08.469Z,102250.94
2023-04-16T03:33:34.886Z,102247.94
2023-04-16T03:36:01.421Z,102255.75
2023-04-16T03:38:27.920Z,102255.44
2023-04-16T03:40:54.348Z,102251.63
2023-04-16T03:43:21.043Z,102249.72
2023-04-16T03:45:47.770Z,102252.16
2023-04-16T03:48:14.257Z,102251.25
2023-04-16T03:50:40.987Z,102257.16
2023-04-16T03:53:07.521Z,102256.16
2023-04-16T03:55:35.145Z,102251.16
2023-04-16T03:58:03.314Z,102261.69
2023-04-16T04:00:30.475Z,102255.78
2023-04-16T04:02:57.264Z,102262.78
2023-04-16T04:05:23.914Z,102263.78
2023-04-16T04:07:50.622Z,102262.78
2023-04-16T04:10:17.060Z,102258.16
2023-04-16T04:12:44.073Z,102253.06
2023-04-16T04:15:11.623Z,102252.16
2023-04-16T04:17:38.214Z,102251.47
2023-04-16T04:20:05.320Z,102257.69
2023-04-16T04:22:31.820Z,102246.31
2023-04-16T04:24:58.312Z,102257.69
2023-04-16T04:27:24.828Z,102259.06
2023-04-16T04:29:51.314Z,102259.06
2023-04-16T04:32:17.730Z,102266.28
2023-04-16T04:34:44.178Z,102270.69
2023-04-16T04:37:10.607Z,102270.59
2023-04-16T04:39:37.065Z,102264.91
2023-04-16T04:42:03.825Z,102273.72
2023-04-16T04:44:30.342Z,102271.50
2023-04-16T04:46:56.770Z,102274.50
2023-04-16T04:49:23.201Z,102280.50
2023-04-16T04:51:49.804Z,102286.34
2023-04-16T04:54:16.651Z,102279.22
2023-04-16T04:56:45.835Z,102288.47
2023-04-16T04:59:12.696Z,102279.63
2023-04-16T05:01:39.384Z,102286.25
2023-04-16T05:04:06.348Z,102284.91
2023-04-16T05:06:32.952Z,102286.81
2023-04-16T05:08:59.416Z,102287.34
2023-04-16T05:11:25.884Z,102281.13
2023-04-16T05:13:52.377Z,102288.03
2023-04-16T05:16:18.865Z,102283.53
2023-04-16T05:18:45.498Z,102280.03
2023-04-16T05:21:12.031Z,102284.44
2023-04-16T05:23:38.542Z,102285.22
2023-04-16T05:26:05.181Z,102287.75
2023-04-16T05:28:31.738Z,102293.16
2023-04-16T05:30:58.328Z,102293.88
2023-04-16T05:33:24.779Z,102292.34
2023-04-16T05:35:51.327Z,102293.56
2023-04-16T05:38:17.815Z,102290.75
2023-04-16T05:40:44.319Z,102302.19
2023-04-16T05:43:10.985Z,102311.09
2023-04-16T05:45:41.228Z,102302.59
2023-04-16T05:48:12.365Z,102306.31
2023-04-16T05:50:38.861Z,102307.28
2023-04-16T05:53:09.117Z,102304.50
2023-04-16T05:55:36.911Z,102311.03
2023-04-16T05:58:06.325Z,102313.09
2023-04-16T06:00:33.174Z,102310.91
2023-04-16T06:02:59.963Z,102326.25
2023-04-16T06:05:27.100Z,102314.91
2023-04-16T06:07:53.730Z,102318.72
2023-04-16T06:10:20.380Z,102323.16
2023-04-16T06:12:46.802Z,102328.56
2023-04-16T06:15:13.306Z,102321.94
2023-04-16T06:17:40.091Z,102330.16
2023-04-16T06:20:07.171Z,102334.47
2023-04-16T06:22:33.664Z,102333.06
2023-04-16T06:25:00.151Z,102331.59
2023-04-16T06:27:27.135Z,102335.50
2023-04-16T06:29:53.566Z,102327.75
2023-04-16T06:32:20.392Z,102333.97
2023-04-16T06:34:46.935Z,102335.63
2023-04-16T06:37:13.357Z,102340.31
2023-04-16T06:39:39.785Z,102347.25
2023-04-16T06:42:06.283Z,102344.53
2023-04-16T06:44:32.812Z,102340.13
2023-04-16T06:46:59.267Z,102350.16
2023-04-16T06:49:25.747Z,102352.06
2023-04-16T06:51:52.220Z,102350.44
2023-04-16T06:54:19.737Z,102356.19
2023-04-16T06:56:46.203Z,102356.19
2023-04-16T06:59:12.720Z,102360.25
2023-04-16T07:01:39.239Z,102361.09
2023-04-16T07:04:05.961Z,102363.88
2023-04-16T07:06:32.542Z,102361.66
2023-04-16T07:08:58.998Z,102367.28
2023-04-16T07:11:26.538Z,102378.13
2023-04-16T07:13:53.868Z,102365.22
2023-04-16T07:16:20.587Z,102373.72
2023-04-16T07:18:47.136Z,102376.44
2023-04-16T07:21:13.631Z,102375.50
2023-04-16T07:23:40.244Z,102379.22
2023-04-16T07:26:06.727Z,102378.94
2023-04-16T07:28:33.235Z,102382.56
2023-04-16T07:31:00.079Z,102380.53
2023-04-16T07:33:27.331Z,102390.69
2023-04-16T07:35:53.880Z,102386.47
2023-04-16T07:38:20.654Z,102390.47
2023-04-16T07:40:47.164Z,102386.38
2023-04-16T07:43:15.162Z,102393.72
2023-04-16T07:45:41.890Z,102388.31
2023-04-16T07:48:08.389Z,102395.41
2023-04-16T07:50:34.850Z,102393.91
2023-04-16T07:53:01.397Z,102402.25
2023-04-16T07:55:27.923Z,102405.84
2023-04-16T07:57:54.903Z,102400.03
2023-04-16T08:00:21.531Z,102406.97
2023-04-16T08:02:48.612Z,102404.94
2023-04-16T08:05:15.492Z,102411.69
2023-04-16T08:07:42.215Z,102408.53
2023-04-16T08:10:09.237Z,102415.56
2023-04-16T08:12:35.955Z,102418.28
2023-04-16T08:15:02.494Z,102418.59
2023-04-16T08:17:30.106Z,102421.59
2023-04-16T08:19:56.765Z,102431.44
2023-04-16T08:22:23.272Z,102437.88
2023-04-16T08:24:49.735Z,102430.56
2023-04-16T08:27:19.856Z,102435.25
2023-04-16T08:29:47.695Z,102428.25
2023-04-16T08:32:14.227Z,102437.56
2023-04-16T08:34:42.029Z,102440.91
2023-04-16T08:37:08.806Z,102445.31
2023-04-16T08:39:35.532Z,102445.09
2023-04-16T08:42:05.602Z,102446.81
2023-04-16T08:44:34.905Z,102443.00
2023-04-16T08:47:02.292Z,102437.47
2023-04-16T08:49:29.896Z,102459.38
2023-04-16T08:51:57.036Z,102450.34
2023-04-16T08:54:57.094Z,102450.84
2023-04-16T08:57:26.932Z,102455.34
2023-04-16T08:59:55.859Z,102441.16
2023-04-16T09:02:23.072Z,102459.75
2023-04-16T09:04:51.283Z,102454.19
2023-04-16T09:07:20.770Z,102460.56
2023-04-16T09:09:49.504Z,102463.94
2023-04-16T09:12:17.056Z,102454.19
2023-04-16T09:14:44.235Z,102463.22
2023-04-16T09:17:12.331Z,102459.84
2023-04-16T09:19:38.853Z,102463.31
2023-04-16T09:22:05.459Z,102457.94
2023-04-16T09:24:32.351Z,102464.63
2023-04-16T09:27:00.573Z,102468.25
2023-04-16T09:29:36.253Z,102467.03
2023-04-16T09:32:05.158Z,102479.78
2023-04-16T09:34:36.173Z,102473.34
2023-04-16T09:37:21.071Z,102476.72
2023-04-16T09:40:00.819Z,102483.78
2023-04-16T09:42:36.160Z,102489.50
2023-04-16T09:45:05.499Z,102487.97
2023-04-16T09:47:41.461Z,102492.97
2023-04-16T09:50:11.274Z,102492.41
2023-04-16T09:52:39.062Z,102503.44
2023-04-16T09:55:06.327Z,102496.22
2023-04-16T09:57:32.810Z,102499.44
2023-04-16T10:00:04.865Z,102506.28
2023-04-16T10:02:32.969Z,102499.75
2023-04-16T10:05:02.365Z,102499.94
2023-04-16T10:07:30.011Z,102501.84
2023-04-16T10:09:56.993Z,102503.69
2023-04-16T10:12:23.459Z,102510.94
2023-04-16T10:14:50.393Z,102508.38
2023-04-16T10:17:17.219Z,102511.00
2023-04-16T10:19:44.342Z,102506.72
2023-04-16T10:22:11.495Z,102504.31
2023-04-16T10:24:38.976Z,102503.66
2023-04-16T10:27:05.716Z,102501.13
2023-04-16T10:29:33.378Z,102508.16
2023-04-16T10:32:01.155Z,102499.91
2023-04-16T10:34:29.022Z,102508.59
2023-04-16T10:36:55.996Z,102506.00
2023-04-16T10:39:24.591Z,102513.00
2023-04-16T10:42:06.201Z,102511.97
2023-04-16T10:44:33.330Z,102507.75
2023-04-16T10:47:00.148Z,102513.91
2023-04-16T10:49:27.150Z,102511.25
2023-04-16T10:52:03.678Z,102504.84
2023-04-16T10:54:31.284Z,102509.84
2023-04-16T10:57:00.783Z,102506.00
2023-04-16T10:59:32.491Z,102519.41
2023-04-16T11:02:01.625Z,102509.25
2023-04-16T11:04:33.170Z,102517.25
2023-04-16T11:07:14.669Z,102517.25
2023-04-16T11:09:48.152Z,102517.56
2023-04-16T11:12:19.205Z,102521.19
2023-04-16T11:14:51.154Z,102513.72
2023-04-16T11:17:18.617Z,102515.00
2023-04-16T11:19:45.369Z,102526.13
2023-04-16T11:22:17.670Z,102513.94
2023-04-16T11:24:45.614Z,102519.72
2023-04-16T11:27:13.932Z,102514.13
2023-04-16T11:29:40.686Z,102516.84
2023-04-16T11:32:07.581Z,102525.84
2023-04-16T11:34:34.381Z,102523.09
2023-04-16T11:37:01.130Z,102514.50
2023-04-16T11:39:27.712Z,102527.09
2023-04-16T11:41:55.564Z,102521.66
2023-04-16T11:44:23.474Z,102521.66
2023-04-16T11:46:51.496Z,102525.50
2023-04-16T11:49:27.063Z,102520.25
2023-04-16T11:51:53.742Z,102525.50
2023-04-16T11:54:21.580Z,102534.09
2023-04-16T11:56:50.864Z,102532.00
2023-04-16T11:59:18.520Z,102525.38
2023-04-16T12:01:52.898Z,102536.69
2023-04-16T12:04:21.281Z,102529.63
2023-04-16T12:07:06.836Z,102534.19
2023-04-16T12:09:37.130Z,102532.53
2023-04-16T12:12:06.139Z,102534.66
2023-04-16T12:14:32.925Z,102528.84
2023-04-16T12:17:19.747Z,102532.47
2023-04-16T12:20:17.185Z,102539.63
2023-04-16T12:22:49.590Z,102541.13
2023-04-16T12:25:17.856Z,102545.31
2023-04-16T12:27:54.039Z,102544.66
2023-04-16T12:30:22.878Z,102550.31
2023-04-16T12:32:51.855Z,102544.91
2023-04-16T12:35:32.073Z,102537.91
2023-04-16T12:37:58.922Z,102545.72
2023-04-16T12:40:25.499Z,102545.59
2023-04-16T12:42:52.322Z,102547.81
2023-04-16T12:45:19.040Z,102546.53
2023-04-16T12:47:46.202Z,102543.69
2023-04-16T12:50:12.803Z,102545.78
2023-04-16T12:52:39.414Z,102548.84
2023-04-16T12:55:06.359Z,102548.09
2023-04-16T12:57:32.991Z,102543.28
2023-04-16T12:59:59.507Z,102542.69
2023-04-16T13:02:26.668Z,102555.59
2023-04-16T13:04:54.311Z,102551.88
2023-04-16T13:07:21.302Z,102549.16
2023-04-16T13:09:47.971Z,102545.59
2023-04-16T13:12:14.437Z,102541.28
2023-04-16T13:14:42.762Z,102543.56
2023-04-16T13:17:10.649Z,102543.44
2023-04-16T13:19:37.093Z,102544.13
2023-04-16T13:22:03.711Z,102544.13
2023-04-16T13:24:30.685Z,102544.66
2023-04-16T13:26:57.219Z,102543.34
2023-04-16T13:29:23.675Z,102544.91
2023-04-16T13:31:50.577Z,102535.00
2023-04-16T13:34:17.177Z,102535.38
2023-04-16T13:36:43.614Z,102537.13
2023-04-16T13:39:13.049Z,102537.75
2023-04-16T13:41:40.106Z,102543.06
2023-04-16T13:44:06.805Z,102541.16
2023-04-16T13:46:33.922Z,102545.63
2023-04-16T13:49:00.501Z,102543.88
2023-04-16T13:51:27.846Z,102541.19
2023-04-16T13:53:55.093Z,102542.81
2023-04-16T13:56:21.778Z,102546.78
2023-04-16T13:58:48.595Z,102545.78
2023-04-16T14:01:15.151Z,102544.72
2023-04-16T14:03:42.065Z,102545.66
2023-04-16T14:06:08.711Z,102547.22
2023-04-16T14:08:35.278Z,102544.53
2023-04-16T14:11:02.147Z,102546.44
2023-04-16T14:13:28.652Z,102538.72
2023-04-16T14:15:55.676Z,102534.25
2023-04-16T14:18:22.196Z,102536.00
2023-04-16T14:20:48.848Z,102535.84
2023-04-16T14:23:15.333Z,102533.78
2023-04-16T14:25:41.874Z,102535.06
2023-04-16T14:28:09.264Z,102537.50
2023-04-16T14:30:35.750Z,102541.03
2023-04-16T14:33:05.614Z,102537.81
2023-04-16T14:35:33.671Z,102539.41
2023-04-16T14:38:01.224Z,102543.72
2023-04-16T14:40:27.757Z,102542.00
2023-04-16T14:42:54.189Z,102541.03
2023-04-16T14:45:20.996Z,102536.09
2023-04-16T14:47:48.128Z,102545.38
2023-04-16T14:50:15.773Z,102541.38
2023-04-16T14:52:42.390Z,102540.59
2023-04-16T14:55:08.997Z,102538.47
2023-04-16T14:57:35.578Z,102543.28
2023-04-16T15:00:02.335Z,102537.84
2023-04-16T15:02:29.042Z,102536.38
2023-04-16T15:04:55.598Z,102536.69
2023-04-16T15:07:22.110Z,102533.94
2023-04-16T15:09:48.627Z,102531.09
2023-04-16T15:12:16.233Z,102528.53
2023-04-16T15:14:43.919Z,102540.56
2023-04-16T15:17:10.630Z,102527.75
2023-04-16T15:19:37.224Z,102533.03
2023-04-16T15:22:03.705Z,102534.50
2023-04-16T15:24:30.327Z,102537.06
2023-04-16T15:26:56.804Z,102528.38
2023-04-16T15:29:23.297Z,102539.16
2023-04-16T15:31:49.783Z,102532.53
2023-04-16T15:34:16.281Z,102526.13
2023-04-16T15:36:42.880Z,102534.63
2023-04-16T15:39:09.911Z,102527.75
2023-04-16T15:41:50.176Z,102534.31
2023-04-16T15:44:23.888Z,102536.06
2023-04-16T15:46:50.547Z,102529.03
2023-04-16T15:49:17.083Z,102538.66
2023-04-16T15:51:43.560Z,102537.38
2023-04-16T15:54:10.067Z,102531.13
2023-04-16T15:56:36.561Z,102533.19
2023-04-16T15:59:03.817Z,102544.88
2023-04-16T16:01:31.122Z,102536.22
2023-04-16T16:03:57.780Z,102537.19
2023-04-16T16:06:24.664Z,102537.97
2023-04-16T16:08:51.277Z,102534.94
2023-04-16T16:11:18.026Z,102532.03
2023-04-16T16:13:44.614Z,102533.50
2023-04-16T16:16:11.372Z,102527.06
2023-04-16T16:18:37.966Z,102530.13
2023-04-16T16:21:04.438Z,102532.69
2023-04-16T16:23:31.303Z,102531.56
2023-04-16T16:25:57.761Z,102527.25
2023-04-16T16:28:25.564Z,102531.91
2023-04-16T16:30:54.615Z,102541.00
2023-04-16T16:33:21.394Z,102535.88
2023-04-16T16:35:47.838Z,102540.66
2023-04-16T16:38:14.394Z,102538.44
2023-04-16T16:40:40.862Z,102543.59
2023-04-16T16:43:07.875Z,102539.28
2023-04-16T16:45:34.434Z,102537.16
2023-04-16T16:48:01.136Z,102534.09
2023-04-16T16:50:27.738Z,102537.94
2023-04-16T16:52:54.166Z,102528.94
2023-04-16T16:55:21.000Z,102529.09
2023-04-16T16:57:47.473Z,102532.91
2023-04-16T17:00:16.164Z,102537.22
2023-04-16T17:02:43.354Z,102546.50
2023-04-16T17:05:10.180Z,102546.66
2023-04-16T17:07:36.880Z,102551.13
2023-04-16T17:10:06.130Z,102555.88
2023-04-16T17:12:33.252Z,102560.00
2023-04-16T17:14:59.736Z,102549.28
2023-04-16T17:17:27.857Z,102549.72
2023-04-16T17:19:54.453Z,102555.06
2023-04-16T17:22:21.582Z,102562.25
2023-04-16T17:24:48.128Z,102556.53
2023-04-16T17:27:14.847Z,102549.16
2023-04-16T17:29:41.336Z,102556.78
2023-04-16T17:32:07.892Z,102559.22
2023-04-16T17:34:34.737Z,102563.84
2023-04-16T17:37:01.232Z,102568.50
2023-04-16T17:39:27.662Z,102574.22
2023-04-16T17:41:58.328Z,102574.22
2023-04-16T17:44:25.754Z,102585.72
2023-04-16T17:46:52.219Z,102587.47
2023-04-16T17:49:18.790Z,102588.50
2023-04-16T17:51:45.602Z,102586.91
2023-04-16T17:54:12.171Z,102588.19
2023-04-16T17:56:38.862Z,102601.47
2023-04-16T17:59:05.498Z,102601.94
2023-04-16T18:01:32.020Z,102598.34
2023-04-16T18:03:58.647Z,102593.47
2023-04-16T18:06:26.397Z,102592.16
2023-04-16T18:08:52.905Z,102595.97
2023-04-16T18:11:19.399Z,102597.25
2023-04-16T18:13:46.383Z,102592.41
2023-04-16T18:16:16.869Z,102601.94
2023-04-16T18:18:44.363Z,102599.63
2023-04-16T18:21:11.109Z,102602.47
2023-04-16T18:23:37.786Z,102603.66
2023-04-16T18:26:04.464Z,102607.47
2023-04-16T18:28:30.990Z,102604.94
2023-04-16T18:30:59.179Z,102605.75
2023-04-16T18:33:52.428Z,102611.34
2023-04-16T18:36:12.221Z,102602.75
2023-04-16T18:38:49.484Z,102616.25
2023-04-16T18:41:24.053Z,102623.38
2023-04-16T18:43:50.823Z,102627.25
2023-04-16T18:46:17.629Z,102628.19
2023-04-16T18:48:45.198Z,102626.78
2023-04-16T18:51:12.839Z,102624.44
2023-04-16T18:53:42.421Z,102637.84
2023-04-16T18:56:09.554Z,102642.91
2023-04-16T18:58:36.671Z,102640.50
2023-04-16T19:01:03.757Z,102644.91
2023-04-16T19:03:30.997Z,102641.22
2023-04-16T19:05:57.676Z,102643.66
2023-04-16T19:08:24.236Z,102642.63
2023-04-16T19:10:50.825Z,102647.56
2023-04-16T19:13:17.369Z,102641.44
2023-04-16T19:15:44.357Z,102652.28
2023-04-16T19:18:10.892Z,102657.94
2023-04-16T19:20:37.862Z,102649.28
2023-04-16T19:23:05.764Z,102649.28
2023-04-16T19:25:32.647Z,102645.97
2023-04-16T19:27:59.413Z,102650.69
2023-04-16T19:30:26.415Z,102649.97
2023-04-16T19:32:55.126Z,102647.47
2023-04-16T19:35:22.249Z,102645.16
2023-04-16T19:37:51.245Z,102651.41
2023-04-16T19:40:17.857Z,102656.00
2023-04-16T19:42:45.437Z,102652.47
2023-04-16T19:45:12.194Z,102652.28
2023-04-16T19:47:38.729Z,102654.59
2023-04-16T19:50:05.875Z,102648.88
2023-04-16T19:52:37.452Z,102659.72
2023-04-16T19:55:05.102Z,102654.38
2023-04-16T19:57:31.629Z,102654.00
2023-04-16T19:59:58.101Z,102660.16
2023-04-16T20:02:24.734Z,102657.44
2023-04-16T20:04:52.906Z,102660.00
2023-04-16T20:07:19.916Z,102659.69
2023-04-16T20:09:46.495Z,102659.63
2023-04-16T20:12:12.973Z,102660.91
2023-04-16T20:14:39.451Z,102670.34
2023-04-16T20:17:10.040Z,102667.34
2023-04-16T20:19:40.053Z,102666.72
2023-04-16T20:22:06.695Z,102663.53
2023-04-16T20:24:33.263Z,102664.00
2023-04-16T20:26:59.756Z,102657.91
2023-04-16T20:29:26.220Z,102661.34
2023-04-16T20:31:52.679Z,102660.97
2023-04-16T20:34:19.173Z,102661.91
2023-04-16T20:36:45.824Z,102659.69
2023-04-16T20:39:12.664Z,102662.00
2023-04-16T20:41:43.971Z,102657.38
2023-04-16T20:44:18.010Z,102662.75
2023-04-16T20:46:49.489Z,102659.97
2023-04-16T20:49:17.546Z,102651.84
2023-04-16T20:51:44.131Z,102648.13
2023-04-16T20:54:10.795Z,102654.41
2023-04-16T20:56:37.302Z,102649.53
2023-04-16T20:59:03.793Z,102641.00
2023-04-16T21:01:30.774Z,102646.41
2023-04-16T21:03:57.557Z,102647.34
2023-04-16T21:06:24.196Z,102645.31
2023-04-16T21:08:50.689Z,102641.09
2023-04-16T21:11:17.182Z,102641.81
2023-04-16T21:13:43.665Z,102650.56
2023-04-16T21:16:12.329Z,102636.78
2023-04-16T21:18:38.921Z,102646.81
2023-04-16T21:21:05.515Z,102643.53
2023-04-16T21:23:31.964Z,102644.03
2023-04-16T21:25:58.454Z,102643.66
2023-04-16T21:28:25.044Z,102640.31
2023-04-16T21:30:52.405Z,102639.59
2023-04-16T21:33:18.894Z,102635.69
2023-04-16T21:35:50.965Z,102639.94
2023-04-16T21:38:17.509Z,102653.03
2023-04-16T21:40:45.912Z,102644.34
2023-04-16T21:43:12.417Z,102655.06
2023-04-16T21:45:39.755Z,102655.38
2023-04-16T21:48:06.678Z,102641.50
2023-04-16T21:50:33.271Z,102646.63
2023-04-16T21:52:59.838Z,102653.28
2023-04-16T21:55:26.330Z,102652.75
2023-04-16T21:57:52.793Z,102652.66
2023-04-16T22:00:19.524Z,102651.78
2023-04-16T22:02:46.240Z,102658.00
2023-04-16T22:05:12.889Z,102646.25
2023-04-16T22:07:39.394Z,102657.41
2023-04-16T22:10:06.929Z,102645.03
2023-04-16T22:12:33.394Z,102646.75
2023-04-16T22:15:02.753Z,102644.56
2023-04-16T22:17:30.100Z,102644.25
2023-04-16T22:19:57.332Z,102641.81
2023-04-16T22:22:23.806Z,102644.50
2023-04-16T22:24:50.357Z,102641.13
2023-04-16T22:27:16.888Z,102638.94
2023-04-16T22:29:43.440Z,102640.75
2023-04-16T22:32:09.963Z,102650.47
2023-04-16T22:34:36.617Z,102643.50
2023-04-16T22:37:03.137Z,102645.84
2023-04-16T22:39:30.922Z,102641.53
2023-04-16T22:41:57.465Z,102636.50
2023-04-16T22:44:23.933Z,102641.94
2023-04-16T22:46:50.512Z,102646.66
2023-04-16T22:49:17.052Z,102639.50
2023-04-16T22:51:43.566Z,102646.47
2023-04-16T22:54:13.267Z,102639.75
2023-04-16T22:56:40.806Z,102643.69
2023-04-16T22:59:07.935Z,102632.69
2023-04-16T23:01:34.756Z,102641.59
2023-04-16T23:04:01.309Z,102640.78
2023-04-16T23:06:27.840Z,102643.06
2023-04-16T23:08:54.324Z,102651.13
2023-04-16T23:11:20.863Z,102641.59
2023-04-16T23:13:47.328Z,102648.81
2023-04-16T23:16:13.952Z,102648.81
2023-04-16T23:18:40.526Z,102647.75
2023-04-16T23:21:06.963Z,102646.09
2023-04-16T23:23:33.398Z,102641.09
2023-04-16T23:26:02.472Z,102651.13
2023-04-16T23:28:29.100Z,102643.69
2023-04-16T23:30:55.677Z,102646.59
2023-04-16T23:33:22.481Z,102656.44
2023-04-16T23:35:49.017Z,102655.22
2023-04-16T23:38:15.621Z,102654.34
2023-04-16T23:40:42.167Z,102653.97
2023-04-16T23:43:08.652Z,102655.09
2023-04-16T23:45:35.279Z,102654.38
2023-04-16T23:48:01.825Z,102649.25
2023-04-16T23:50:28.386Z,102661.81
2023-04-16T23:52:54.884Z,102649.00
2023-04-16T23:55:21.514Z,102651.94
2023-04-16T23:57:47.966Z,102660.50
